Time,TemperatureF,DewpointF,PressureIn,WindDirection,WindDirectionDegrees,WindSpeedMPH,WindSpeedGustMPH,Humidity,HourlyPrecipIn,Conditions,Clouds,dailyrainin,SoftwareType,DateUTC
2013-02-28 00:00:00,31.5,30.0,29.60,SSW,202,0.0,0.0,94,0.00,,,0.00,VWS V14.01,2013-02-28 05:00:00,
2013-02-28 00:15:00,31.6,30.1,29.60,SSW,202,0.0,0.0,94,0.00,,,0.00,VWS V14.01,2013-02-28 05:15:00,
2013-02-28 00:30:00,31.6,30.1,29.60,SSW,202,0.0,0.0,94,0.00,,,0.00,VWS V14.01,2013-02-28 05:30:00,
2013-02-28 00:45:00,31.6,30.1,29.60,SSW,202,0.0,0.0,94,0.00,,,0.00,VWS V14.01,2013-02-28 05:45:00,
2013-02-28 01:00:00,31.8,30.3,29.61,SSW,202,0.0,0.0,94,0.00,,,0.00,VWS V14.01,2013-02-28 06:00:00,
2013-02-28 01:15:00,31.8,30.3,29.61,SSW,202,0.0,0.0,94,0.00,,,0.00,VWS V14.01,2013-02-28 06:15:00,
2013-02-28 01:30:00,31.8,30.3,29.61,SSW,202,0.0,0.0,94,0.00,,,0.00,VWS V14.01,2013-02-28 06:30:00,
2013-02-28 01:45:00,31.8,30.5,29.60,SSW,202,0.0,0.0,95,0.00,,,0.00,VWS V14.01,2013-02-28 06:45:00,
2013-02-28 02:00:00,31.8,30.5,29.61,SSW,202,0.0,0.0,95,0.00,,,0.00,VWS V14.01,2013-02-28 07:00:00,
2013-02-28 02:15:00,31.9,30.6,29.61,SSW,202,0.0,0.0,95,0.00,,,0.00,VWS V14.01,2013-02-28 07:15:00,
2013-02-28 02:30:00,31.9,30.9,29.61,SSW,202,0.0,0.0,96,0.00,,,0.00,VWS V14.01,2013-02-28 07:30:00,
2013-02-28 02:45:00,31.9,30.9,29.61,SSW,202,0.0,0.0,96,0.00,,,0.00,VWS V14.01,2013-02-28 07:45:00,
2013-02-28 03:00:00,31.9,30.9,29.61,SSW,202,0.0,0.0,96,0.00,,,0.00,VWS V14.01,2013-02-28 08:00:00,
2013-02-28 03:15:00,32.1,31.1,29.61,SSW,202,0.0,0.0,96,0.00,,,0.00,VWS V14.01,2013-02-28 08:15:00,
2013-02-28 03:30:00,32.1,31.1,29.61,SSW,202,0.0,0.0,96,0.00,,,0.00,VWS V14.01,2013-02-28 08:30:00,
2013-02-28 03:45:00,32.1,31.1,29.61,SSW,202,0.0,0.0,96,0.00,,,0.00,VWS V14.01,2013-02-28 08:45:00,
2013-02-28 04:00:00,32.1,31.1,29.61,SSW,202,0.0,0.0,96,0.00,,,0.00,VWS V14.01,2013-02-28 09:00:00,
2013-02-28 04:15:00,32.1,31.1,29.62,SSW,202,0.0,0.0,96,0.00,,,0.00,VWS V14.01,2013-02-28 09:15:00,
2013-02-28 04:30:00,32.1,31.1,29.63,SSW,202,0.0,0.0,96,0.00,,,0.00,VWS V14.01,2013-02-28 09:30:00,
2013-02-28 04:45:00,32.2,31.2,29.63,SSW,202,0.0,0.0,96,0.00,,,0.00,VWS V14.01,2013-02-28 09:45:00,
2013-02-28 05:00:00,32.2,31.2,29.64,SSW,202,0.0,0.0,96,0.00,,,0.00,VWS V14.01,2013-02-28 10:00:00,
2013-02-28 05:15:00,32.4,31.4,29.64,SSW,202,0.0,0.0,96,0.00,,,0.00,VWS V14.01,2013-02-28 10:15:00,
2013-02-28 05:30:00,32.4,31.4,29.65,SSW,202,0.0,0.0,96,0.00,,,0.00,VWS V14.01,2013-02-28 10:30:00,
2013-02-28 05:45:00,32.5,31.5,29.65,SSW,202,0.0,0.0,96,0.00,,,0.00,VWS V14.01,2013-02-28 10:45:00,
2013-02-28 06:00:00,32.7,31.7,29.66,SSW,202,0.0,0.0,96,0.00,,,0.00,VWS V14.01,2013-02-28 11:00:00,
2013-02-28 06:15:00,32.7,31.7,29.66,SSW,202,0.0,0.0,96,0.00,,,0.00,VWS V14.01,2013-02-28 11:15:00,
2013-02-28 06:30:00,32.7,31.9,29.67,SSW,202,0.0,0.0,97,0.00,,,0.00,VWS V14.01,2013-02-28 11:30:00,
2013-02-28 06:45:00,32.7,31.9,29.67,SSW,202,0.0,0.0,97,0.00,,,0.00,VWS V14.01,2013-02-28 11:45:00,
2013-02-28 07:00:00,32.8,32.0,29.68,SSW,202,0.0,0.0,97,0.00,,,0.00,VWS V14.01,2013-02-28 12:00:00,
2013-02-28 07:15:00,32.8,32.0,29.68,SSW,202,0.0,0.0,97,0.00,,,0.00,VWS V14.01,2013-02-28 12:15:00,
2013-02-28 07:30:00,32.8,32.0,29.69,SSW,202,0.0,0.0,97,0.00,,,0.00,VWS V14.01,2013-02-28 12:30:00,
2013-02-28 07:45:00,32.8,32.0,29.69,SSW,202,0.0,0.0,97,0.00,,,0.00,VWS V14.01,2013-02-28 12:45:00,
2013-02-28 08:00:00,32.9,32.1,29.70,SSW,202,0.0,0.0,97,0.00,,,0.00,VWS V14.01,2013-02-28 13:00:00,
2013-02-28 08:15:00,32.9,32.1,29.71,SSW,202,0.0,0.0,97,0.00,,,0.00,VWS V14.01,2013-02-28 13:15:00,
2013-02-28 08:30:00,33.1,32.3,29.71,SSW,202,0.0,0.0,97,0.00,,,0.00,VWS V14.01,2013-02-28 13:30:00,
2013-02-28 08:45:00,33.1,32.1,29.72,SSW,202,0.0,0.0,96,0.00,,,0.00,VWS V14.01,2013-02-28 13:45:00,
2013-02-28 09:00:00,33.2,32.2,29.72,SSW,202,0.0,0.0,96,0.00,,,0.00,VWS V14.01,2013-02-28 14:00:00,
2013-02-28 09:15:00,33.4,32.4,29.73,SSW,202,0.0,0.0,96,0.00,,,0.00,VWS V14.01,2013-02-28 14:15:00,
2013-02-28 09:30:00,33.4,32.4,29.73,SSW,202,0.0,0.0,96,0.00,,,0.00,VWS V14.01,2013-02-28 14:30:00,
2013-02-28 09:45:00,33.4,32.4,29.74,SSW,202,0.0,0.0,96,0.00,,,0.00,VWS V14.01,2013-02-28 14:45:00,
2013-02-28 10:00:00,33.5,32.5,29.75,SSW,202,0.0,0.0,96,0.00,,,0.00,VWS V14.01,2013-02-28 15:00:00,
2013-02-28 10:15:00,33.7,32.7,29.75,SSW,202,0.0,0.0,96,0.00,,,0.00,VWS V14.01,2013-02-28 15:15:00,
2013-02-28 10:30:00,34.1,33.1,29.75,SSW,202,0.0,0.0,96,0.01,,,0.01,VWS V14.01,2013-02-28 15:30:00,
2013-02-28 10:45:00,34.6,33.3,29.75,SSW,202,0.0,0.0,95,0.01,,,0.01,VWS V14.01,2013-02-28 15:45:00,
2013-02-28 11:00:00,34.6,33.0,29.76,SSW,202,0.0,0.0,94,0.02,,,0.02,VWS V14.01,2013-02-28 16:00:00,
2013-02-28 11:15:00,34.7,32.9,29.76,SSW,202,0.0,0.0,93,0.02,,,0.02,VWS V14.01,2013-02-28 16:15:00,
2013-02-28 11:30:00,34.7,32.9,29.77,SSW,202,0.0,0.0,93,0.02,,,0.02,VWS V14.01,2013-02-28 16:30:00,
2013-02-28 11:45:00,34.7,32.6,29.78,SSW,202,0.0,0.0,92,0.01,,,0.02,VWS V14.01,2013-02-28 16:45:00,
2013-02-28 12:00:00,35.0,32.9,29.78,SSW,202,0.0,0.0,92,0.01,,,0.02,VWS V14.01,2013-02-28 17:00:00,
2013-02-28 12:15:00,35.0,32.6,29.79,SSW,202,0.0,0.0,91,0.00,,,0.02,VWS V14.01,2013-02-28 17:15:00,
2013-02-28 12:30:00,35.0,32.6,29.79,SSW,202,0.0,0.0,91,0.00,,,0.02,VWS V14.01,2013-02-28 17:30:00,
2013-02-28 12:45:00,35.6,33.0,29.79,SSW,202,0.0,0.0,90,0.00,,,0.02,VWS V14.01,2013-02-28 17:45:00,
2013-02-28 13:00:00,36.0,33.1,29.79,SSW,202,0.0,0.0,89,0.00,,,0.02,VWS V14.01,2013-02-28 18:00:00,
2013-02-28 13:15:00,36.3,33.4,29.79,SSW,202,0.0,0.0,89,0.00,,,0.02,VWS V14.01,2013-02-28 18:15:00,
2013-02-28 13:30:00,36.6,32.8,29.79,SSW,202,0.0,0.0,86,0.00,,,0.02,VWS V14.01,2013-02-28 18:30:00,
2013-02-28 13:45:00,36.6,33.7,29.79,SSW,202,0.0,0.0,89,0.00,,,0.02,VWS V14.01,2013-02-28 18:45:00,
2013-02-28 14:00:00,36.6,33.4,29.79,SSW,202,0.0,0.0,88,0.00,,,0.02,VWS V14.01,2013-02-28 19:00:00,
2013-02-28 14:15:00,36.3,33.1,29.79,SSW,202,0.0,0.0,88,0.00,,,0.02,VWS V14.01,2013-02-28 19:15:00,
2013-02-28 14:30:00,36.6,33.4,29.80,SSW,202,0.0,0.0,88,0.00,,,0.02,VWS V14.01,2013-02-28 19:30:00,
2013-02-28 14:45:00,37.2,33.1,29.80,SSW,202,0.0,0.0,85,0.00,,,0.02,VWS V14.01,2013-02-28 19:45:00,
2013-02-28 15:00:00,38.0,33.3,29.80,SSW,202,0.0,0.0,83,0.00,,,0.02,VWS V14.01,2013-02-28 20:00:00,
2013-02-28 15:15:00,38.0,33.3,29.80,SSW,202,0.0,0.0,83,0.00,,,0.02,VWS V14.01,2013-02-28 20:15:00,
2013-02-28 15:30:00,37.6,33.5,29.80,SSW,202,0.0,0.0,85,0.00,,,0.02,VWS V14.01,2013-02-28 20:30:00,
2013-02-28 15:45:00,37.3,33.2,29.81,SSW,202,0.0,0.0,85,0.00,,,0.02,VWS V14.01,2013-02-28 20:45:00,
2013-02-28 16:00:00,37.5,34.0,29.82,SSW,202,0.0,0.0,87,0.00,,,0.02,VWS V14.01,2013-02-28 21:00:00,
2013-02-28 16:15:00,37.3,33.5,29.83,SSW,202,0.0,0.0,86,0.00,,,0.02,VWS V14.01,2013-02-28 21:15:00,
2013-02-28 16:30:00,37.3,33.8,29.83,SSW,202,0.0,0.0,87,0.00,,,0.02,VWS V14.01,2013-02-28 21:30:00,
2013-02-28 16:45:00,37.0,33.5,29.84,SSW,202,0.0,0.0,87,0.00,,,0.02,VWS V14.01,2013-02-28 21:45:00,
2013-02-28 17:00:00,36.8,32.7,29.85,SSW,202,0.0,0.0,85,0.00,,,0.02,VWS V14.01,2013-02-28 22:00:00,
2013-02-28 17:15:00,36.5,32.4,29.85,SSW,202,0.0,0.0,85,0.00,,,0.02,VWS V14.01,2013-02-28 22:15:00,
2013-02-28 17:30:00,36.3,32.5,29.86,SSW,202,0.0,0.0,86,0.00,,,0.02,VWS V14.01,2013-02-28 22:30:00,
2013-02-28 17:45:00,36.0,32.5,29.87,SSW,202,0.0,0.0,87,0.00,,,0.02,VWS V14.01,2013-02-28 22:45:00,
2013-02-28 18:00:00,35.8,32.6,29.88,SSW,202,0.0,0.0,88,0.00,,,0.02,VWS V14.01,2013-02-28 23:00:00,
2013-02-28 18:15:00,35.3,32.4,29.89,SSW,202,0.0,0.0,89,0.00,,,0.02,VWS V14.01,2013-02-28 23:15:00,
2013-02-28 18:30:00,34.7,32.1,29.89,SSW,202,0.0,0.0,90,0.00,,,0.02,VWS V14.01,2013-02-28 23:30:00,
2013-02-28 18:45:00,34.6,32.0,29.90,SSW,202,0.0,0.0,90,0.00,,,0.02,VWS V14.01,2013-02-28 23:45:00,
2013-02-28 19:00:00,34.7,31.8,29.90,SSW,202,0.0,0.0,89,0.00,,,0.02,VWS V14.01,2013-03-01 00:00:00,
2013-02-28 19:15:00,34.4,31.5,29.91,SSW,202,0.0,0.0,89,0.00,,,0.02,VWS V14.01,2013-03-01 00:15:00,
2013-02-28 19:30:00,33.8,31.2,29.92,SSW,202,0.0,0.0,90,0.00,,,0.02,VWS V14.01,2013-03-01 00:30:00,
2013-02-28 19:45:00,33.4,31.1,29.92,SSW,202,0.0,0.0,91,0.00,,,0.02,VWS V14.01,2013-03-01 00:45:00,
2013-02-28 20:00:00,33.1,30.8,29.92,SSW,202,0.0,0.0,91,0.00,,,0.02,VWS V14.01,2013-03-01 01:00:00,
2013-02-28 20:15:00,32.9,30.6,29.92,SSW,202,0.0,0.0,91,0.00,,,0.02,VWS V14.01,2013-03-01 01:15:00,
2013-02-28 20:30:00,32.8,30.7,29.93,SSW,202,0.0,0.0,92,0.00,,,0.02,VWS V14.01,2013-03-01 01:30:00,
2013-02-28 20:45:00,32.7,30.4,29.93,SSW,202,0.0,0.0,91,0.00,,,0.02,VWS V14.01,2013-03-01 01:45:00,
2013-02-28 21:00:00,32.7,30.1,29.93,SSW,202,0.0,0.0,90,0.00,,,0.02,VWS V14.01,2013-03-01 02:00:00,
2013-02-28 21:15:00,32.7,29.8,29.93,SSW,202,0.0,0.0,89,0.00,,,0.02,VWS V14.01,2013-03-01 02:15:00,
2013-02-28 21:30:00,32.8,29.4,29.92,SSW,202,0.0,0.0,87,0.00,,,0.02,VWS V14.01,2013-03-01 02:30:00,
2013-02-28 21:45:00,32.8,29.1,29.93,SSW,202,0.0,0.0,86,0.00,,,0.02,VWS V14.01,2013-03-01 02:45:00,
2013-02-28 22:00:00,32.7,29.3,29.93,SSW,202,0.0,0.0,87,0.00,,,0.02,VWS V14.01,2013-03-01 03:00:00,
2013-02-28 22:15:00,32.7,29.3,29.93,SSW,202,0.0,0.0,87,0.00,,,0.02,VWS V14.01,2013-03-01 03:15:00,
2013-02-28 22:30:00,32.5,29.1,29.93,SSW,202,0.0,0.0,87,0.00,,,0.02,VWS V14.01,2013-03-01 03:30:00,
2013-02-28 22:45:00,32.5,29.4,29.93,SSW,202,0.0,0.0,88,0.00,,,0.02,VWS V14.01,2013-03-01 03:45:00,
2013-02-28 23:00:00,32.4,29.2,29.93,SSW,202,0.0,0.0,88,0.00,,,0.02,VWS V14.01,2013-03-01 04:00:00,
2013-02-28 23:15:00,32.4,29.2,29.93,SSW,202,0.0,0.0,88,0.00,,,0.02,VWS V14.01,2013-03-01 04:15:00,
2013-02-28 23:30:00,32.4,29.0,29.93,SSW,202,0.0,0.0,87,0.00,,,0.02,VWS V14.01,2013-03-01 04:30:00,
2013-02-28 23:45:00,32.2,28.8,29.93,SSW,202,0.0,0.0,87,0.00,,,0.02,VWS V14.01,2013-03-01 04:45:00,